CheckWX is a tool to help pilots better visualize weather data.  It is not intended as a substitute for an official pre-flight weather briefing.

12:03:45 UTC

KJYO METAR
Leesburg Executive Airport
Leesburg, Virginia, USA
Current

29 mins ago

KJYO 251135Z AUTO 34005KT 10SM CLR 07/03 A3004 RMK AO2
Observed
Mar-25 @ 11:35 UTC
Wind
  • 340° at 5 KTS
Visibility
10 SM
Flight Rules
VFR
Cloud Levels
  • Clear skies
Temperature
C / 45°F
Dewpoint
C / 37°F
Humidity
76%
Altimeter
30.04" Hg
Pressure
1017.32 hPa
Previous

49 mins ago

KJYO 251115Z AUTO 00000KT 10SM SCT090 07/03 A3003 RMK AO2
Observed
Mar-25 @ 11:15 UTC
Visibility
10 SM
Flight Rules
VFR
Cloud Levels
  • Scattered at 9,000' AGL
Temperature
C / 45°F
Dewpoint
C / 37°F
Humidity
76%
Altimeter
30.03" Hg
Pressure
1016.92 hPa
Previous

1 hour ago

KJYO 251055Z AUTO 00000KT 10SM BKN090 08/04 A3003 RMK AO2
Observed
Mar-25 @ 10:55 UTC
Visibility
10 SM
Flight Rules
VFR
Cloud Levels
  • Broken at 9,000' AGL
Temperature
C / 46°F
Dewpoint
C / 39°F
Humidity
76%
Altimeter
30.03" Hg
Pressure
1016.92 hPa